Time;durP1;ratioP1;P1;durP2;ratioP2;P2;SDS_P1;SDS_P2;PMS_P1;PMS_P2;Temp;Humidity;BMP_temperature;BMP_pressure;BME280_temperature;BME280_humidity;BME280_pressure;Samples;Min_cycle;Max_cycle;Signal;HPM_P1;HPM_P2
2023/08/01 00:02:24;;;;;;;9.65;2.13;;;;;;;26.37;100.00;100224.63;20937947;28;20048;-75
2023/08/01 00:12:47;;;;;;;6.03;1.67;;;;;;;26.31;100.00;100216.88;20894155;28;20072;-74
2023/08/01 00:23:12;;;;;;;8.82;2.17;;;;;;;26.31;100.00;100219.56;20903843;28;20053;-74
2023/08/01 00:33:34;;;;;;;6.88;2.00;;;;;;;26.27;100.00;100212.56;20874809;28;20057;-74
2023/08/01 00:43:38;;;;;;;7.47;2.28;;;;;;;26.19;100.00;100211.16;20891654;28;20041;-74
2023/08/01 00:54:02;;;;;;;4.75;1.88;;;;;;;26.18;100.00;100200.44;20930470;28;20055;-74
2023/08/01 01:04:26;;;;;;;8.40;2.15;;;;;;;26.19;100.00;100204.84;20967239;28;20055;-74
2023/08/01 01:14:49;;;;;;;8.23;2.10;;;;;;;26.15;100.00;100195.19;20915799;28;20044;-75
2023/08/01 01:25:14;;;;;;;7.68;2.00;;;;;;;26.19;100.00;100189.50;20829898;28;20500;-74
2023/08/01 01:35:36;;;;;;;6.18;2.45;;;;;;;26.21;100.00;100194.81;20909312;28;20041;-74
2023/08/01 01:46:00;;;;;;;7.72;2.30;;;;;;;26.15;100.00;100196.06;20895288;28;20044;-74
2023/08/01 01:56:23;;;;;;;7.15;2.35;;;;;;;26.08;100.00;100205.50;20905077;28;20041;-74
2023/08/01 02:06:47;;;;;;;5.03;1.95;;;;;;;26.03;100.00;100207.59;20891825;28;20048;-73
2023/08/01 02:16:56;;;;;;;7.47;2.30;;;;;;;25.96;100.00;100198.06;20894093;28;20071;-75
2023/08/01 02:27:21;;;;;;;7.15;2.10;;;;;;;25.87;100.00;100205.81;20906048;28;20075;-74
2023/08/01 02:37:44;;;;;;;4.95;1.80;;;;;;;25.82;100.00;100208.78;20889097;28;20049;-74
2023/08/01 02:48:08;;;;;;;5.63;2.22;;;;;;;25.74;100.00;100219.16;20902142;28;20486;-75
2023/08/01 02:58:31;;;;;;;7.95;2.67;;;;;;;25.67;100.00;100232.16;20896654;28;20053;-74
2023/08/01 03:08:55;;;;;;;5.55;2.38;;;;;;;25.62;100.00;100236.06;20893969;28;20060;-75
2023/08/01 03:19:19;;;;;;;7.72;2.17;;;;;;;25.59;100.00;100236.25;20889912;28;20397;-74
2023/08/01 03:29:43;;;;;;;4.95;2.33;;;;;;;25.57;100.00;100244.44;20883673;28;20093;-74
2023/08/01 03:40:08;;;;;;;8.73;2.90;;;;;;;25.55;100.00;100243.59;20891259;28;20052;-75
2023/08/01 03:50:33;;;;;;;5.72;2.25;;;;;;;25.91;100.00;100248.00;20876971;28;20083;-74
2023/08/01 04:00:55;;;;;;;5.72;2.00;;;;;;;26.23;100.00;100255.16;20878008;28;20160;-74
2023/08/01 04:11:19;;;;;;;7.00;2.05;;;;;;;26.68;100.00;100258.91;20905034;28;20060;-74
2023/08/01 04:21:42;;;;;;;4.47;2.00;;;;;;;27.16;100.00;100258.72;20913156;28;20106;-73
2023/08/01 04:32:08;;;;;;;5.65;2.00;;;;;;;27.74;100.00;100264.13;20911513;28;20578;-74
2023/08/01 04:42:30;;;;;;;4.47;1.50;;;;;;;28.32;100.00;100271.25;20924373;28;20057;-75
2023/08/01 04:52:34;;;;;;;3.80;1.70;;;;;;;28.81;100.00;100265.31;20915569;28;20049;-75
2023/08/01 05:02:57;;;;;;;5.32;1.45;;;;;;;29.36;100.00;100272.38;20909417;28;20049;-74
2023/08/01 05:13:21;;;;;;;4.22;1.33;;;;;;;29.98;94.19;100273.38;20880718;28;20053;-74
2023/08/01 05:23:43;;;;;;;5.18;1.40;;;;;;;30.46;83.81;100277.91;20902185;28;20069;-75
2023/08/01 05:33:49;;;;;;;3.00;1.30;;;;;;;31.21;75.78;100275.00;20885918;28;20170;-74
2023/08/01 05:44:12;;;;;;;4.28;1.63;;;;;;;32.06;62.77;100279.09;20874934;28;20052;-75
2023/08/01 05:54:23;;;;;;;5.32;1.63;;;;;;;33.12;54.26;100289.31;20899454;28;20049;-74
2023/08/01 06:04:46;;;;;;;3.97;1.50;;;;;;;34.00;51.04;100294.41;20876933;28;20181;-75
2023/08/01 06:14:58;;;;;;;5.38;1.38;;;;;;;34.42;49.22;100292.41;20895921;28;1897532;-75
2023/08/01 06:25:21;;;;;;;6.88;1.90;;;;;;;35.07;50.19;100300.03;20942768;28;20454;-75
2023/08/01 06:35:27;;;;;;;6.20;1.97;;;;;;;35.28;50.18;100301.81;20978314;28;20118;-75
2023/08/01 06:45:50;;;;;;;;;;;;;;;35.62;50.08;100307.69;20953454;28;20048;-75
2023/08/01 06:56:14;;;;;;;3.58;1.60;;;;;;;35.87;50.02;100318.06;20958933;28;19978;-74
2023/08/01 07:06:36;;;;;;;3.57;1.70;;;;;;;35.91;50.42;100320.34;20901266;28;20433;-75
2023/08/01 07:17:01;;;;;;;5.55;1.60;;;;;;;35.90;47.63;100337.88;20990608;28;20075;-75
2023/08/01 07:27:24;;;;;;;5.90;1.60;;;;;;;36.01;45.08;100334.06;20980868;28;20079;-74
2023/08/01 07:37:48;;;;;;;6.45;1.55;;;;;;;36.10;43.14;100346.94;20961849;28;20052;-75
2023/08/01 07:47:50;;;;;;;5.68;1.48;;;;;;;36.31;43.15;100364.09;20960811;28;20048;-75
2023/08/01 07:58:14;;;;;;;3.22;1.75;;;;;;;36.57;41.22;100357.88;20913432;28;20056;-75
2023/08/01 08:08:16;;;;;;;3.13;1.40;;;;;;;36.82;40.70;100359.97;20954299;28;20045;-75
2023/08/01 08:18:41;;;;;;;3.53;1.35;;;;;;;36.80;40.21;100363.88;20926244;28;20497;-75
2023/08/01 08:29:04;;;;;;;3.80;1.80;;;;;;;36.65;39.09;100367.16;20876916;28;20033;-75
2023/08/01 08:39:28;;;;;;;4.05;1.50;;;;;;;36.97;37.92;100366.66;20869406;28;20055;-75
2023/08/01 08:49:51;;;;;;;5.43;1.50;;;;;;;37.30;38.89;100372.53;20909956;28;20097;-74
2023/08/01 09:00:16;;;;;;;6.03;1.50;;;;;;;37.51;37.41;100376.69;20870474;28;20057;-74
2023/08/01 09:10:18;;;;;;;3.42;1.40;;;;;;;38.07;36.26;100386.47;20889308;28;20520;-74
2023/08/01 09:20:44;;;;;;;3.95;1.40;;;;;;;38.40;35.87;100393.06;20905699;28;20049;-74
2023/08/01 09:30:51;;;;;;;6.13;1.60;;;;;;;38.47;35.60;100399.66;20900374;28;20489;-74
2023/08/01 09:41:21;;;;;;;4.55;1.50;;;;;;;38.59;35.42;100409.41;20890641;28;20052;-74
2023/08/01 09:51:49;;;;;;;3.55;1.70;;;;;;;39.00;35.09;100404.06;20887766;28;20817;-74
2023/08/01 10:01:54;;;;;;;6.63;1.88;;;;;;;39.03;35.15;100390.78;20905132;28;20095;-74
2023/08/01 10:12:19;;;;;;;6.07;1.63;;;;;;;38.95;35.63;100399.06;20877343;28;20063;-71
2023/08/01 10:22:44;;;;;;;4.20;1.45;;;;;;;39.00;35.65;100393.88;20879538;28;20045;-70
2023/08/01 10:33:12;;;;;;;4.07;1.60;;;;;;;38.56;36.42;100389.56;20893180;28;20688;-71
2023/08/01 10:43:36;;;;;;;4.35;1.42;;;;;;;38.63;36.11;100388.72;20867185;28;20139;-71
2023/08/01 10:53:58;;;;;;;6.73;1.73;;;;;;;38.70;34.86;100372.38;20922965;28;20052;-71
2023/08/01 11:04:15;;;;;;;3.95;1.80;;;;;;;38.70;33.14;100369.59;20888671;28;20053;-71
2023/08/01 11:14:38;;;;;;;4.22;1.88;;;;;;;38.73;32.52;100365.66;20864702;28;20739;-71
2023/08/01 11:25:02;;;;;;;4.43;1.63;;;;;;;38.86;31.58;100369.63;20895571;28;20497;-70
2023/08/01 11:35:27;;;;;;;3.60;1.52;;;;;;;38.74;30.88;100357.19;20890434;28;20460;-71
2023/08/01 11:45:54;;;;;;;2.42;1.63;;;;;;;38.71;29.52;100364.94;20877641;28;20079;-71
2023/08/01 11:56:22;;;;;;;4.88;1.80;;;;;;;38.71;29.14;100376.00;20892537;28;20073;-71
2023/08/01 12:06:38;;;;;;;4.38;1.52;;;;;;;38.35;29.53;100362.34;20880508;28;20053;-71
2023/08/01 12:17:00;;;;;;;4.60;1.60;;;;;;;38.04;30.30;100364.75;20895315;28;20091;-70
2023/08/01 12:27:25;;;;;;;4.40;1.60;;;;;;;38.14;30.66;100356.34;20908034;28;20056;-71
2023/08/01 12:37:48;;;;;;;6.22;2.10;;;;;;;37.78;32.04;100339.91;20879231;28;20056;-71
2023/08/01 12:48:12;;;;;;;4.57;2.30;;;;;;;37.67;30.94;100337.44;20907356;28;20106;-70
2023/08/01 12:58:35;;;;;;;10.50;2.67;;;;;;;37.56;31.45;100334.88;20918997;28;20050;-70
2023/08/01 13:08:59;;;;;;;3.67;1.80;;;;;;;37.30;32.27;100331.22;20908194;28;20106;-70
2023/08/01 13:19:22;;;;;;;3.83;2.08;;;;;;;37.06;33.65;100323.56;20900534;28;20048;-70
2023/08/01 13:29:47;;;;;;;7.38;2.00;;;;;;;36.55;36.85;100322.28;20889930;28;20044;-71
2023/08/01 13:40:11;;;;;;;6.75;2.05;;;;;;;36.31;38.21;100306.34;20899098;28;20492;-70
2023/08/01 13:50:36;;;;;;;5.33;2.10;;;;;;;35.79;39.59;100304.19;20886995;28;20056;-70
2023/08/01 14:01:04;;;;;;;5.17;2.03;;;;;;;35.78;39.33;100302.47;20892896;28;20139;-70
2023/08/01 14:11:27;;;;;;;7.22;2.20;;;;;;;36.27;37.53;100306.81;20917020;28;20544;-70
2023/08/01 14:21:50;;;;;;;4.57;2.03;;;;;;;36.64;36.03;100295.72;20900523;28;20048;-70
2023/08/01 14:32:14;;;;;;;6.13;2.50;;;;;;;36.76;36.15;100293.66;20881920;28;20072;-70
2023/08/01 14:42:37;;;;;;;5.55;2.47;;;;;;;36.63;37.03;100293.97;20912048;28;20626;-70
2023/08/01 14:53:02;;;;;;;8.10;2.63;;;;;;;36.17;37.35;100301.31;20925661;28;20049;-70
2023/08/01 15:03:25;;;;;;;4.68;2.20;;;;;;;35.97;37.70;100296.06;20896400;28;20056;-71
2023/08/01 15:13:49;;;;;;;6.65;2.58;;;;;;;35.32;39.67;100306.84;20871405;28;20056;-71
2023/08/01 15:24:12;;;;;;;6.75;2.38;;;;;;;34.34;39.70;100306.81;20906931;28;20409;-70
2023/08/01 15:34:36;;;;;;;6.22;2.25;;;;;;;33.52;37.43;100316.88;20924185;28;20056;-70
2023/08/01 15:44:58;;;;;;;6.60;2.33;;;;;;;32.99;36.93;100317.84;20897965;28;20417;-71
2023/08/01 15:55:22;;;;;;;4.75;2.58;;;;;;;32.63;37.89;100321.78;20916840;28;20044;-70
2023/08/01 16:05:45;;;;;;;4.68;2.70;;;;;;;32.32;39.88;100334.38;20898070;28;20081;-69
2023/08/01 16:15:49;;;;;;;3.90;2.63;;;;;;;32.05;41.21;100342.91;20877996;28;20048;-70
2023/08/01 16:26:12;;;;;;;9.15;3.00;;;;;;;31.79;42.42;100353.19;20899154;28;20052;-69
2023/08/01 16:36:36;;;;;;;5.80;2.95;;;;;;;31.56;43.77;100363.19;20916180;28;20045;-70
2023/08/01 16:46:59;;;;;;;6.57;3.47;;;;;;;31.33;45.63;100361.34;20895601;28;20094;-70
2023/08/01 16:57:23;;;;;;;8.10;3.10;;;;;;;31.03;47.39;100364.53;20906354;28;20098;-70
2023/08/01 17:07:46;;;;;;;6.65;3.30;;;;;;;30.78;47.60;100376.44;20901852;28;20144;-69
2023/08/01 17:18:10;;;;;;;7.25;3.33;;;;;;;30.49;48.28;100375.84;20902614;28;20117;-70
2023/08/01 17:28:32;;;;;;;8.73;4.22;;;;;;;30.34;49.09;100376.03;20896210;28;20390;-71
2023/08/01 17:38:57;;;;;;;10.57;3.80;;;;;;;29.94;52.63;100383.47;20881722;28;20052;-72
2023/08/01 17:49:19;;;;;;;8.25;3.40;;;;;;;29.81;53.87;100391.59;20901391;28;20049;-70
2023/08/01 17:59:44;;;;;;;6.68;3.50;;;;;;;29.42;57.08;100407.97;20904904;28;20044;-71
2023/08/01 18:10:07;;;;;;;6.95;3.75;;;;;;;29.14;58.40;100423.44;20874234;28;20528;-71
2023/08/01 18:20:33;;;;;;;10.00;3.95;;;;;;;29.09;57.97;100439.16;20864140;28;20190;-71
2023/08/01 18:30:55;;;;;;;6.63;4.65;;;;;;;28.85;60.43;100444.38;20880286;28;20056;-71
2023/08/01 18:41:20;;;;;;;9.00;4.03;;;;;;;28.68;62.06;100439.13;20874141;28;20533;-71
2023/08/01 18:51:42;;;;;;;7.38;4.32;;;;;;;28.57;62.61;100459.78;20893401;28;20059;-71
2023/08/01 19:01:57;;;;;;;7.32;4.15;;;;;;;28.24;69.73;100460.06;20899501;28;20056;-70
2023/08/01 19:12:04;;;;;;;9.25;3.97;;;;;;;28.39;71.18;100454.56;20888729;28;20159;-70
2023/08/01 19:22:29;;;;;;;9.80;4.73;;;;;;;28.25;71.73;100464.53;20879833;28;20665;-70
2023/08/01 19:32:51;;;;;;;9.30;6.00;;;;;;;27.80;79.33;100462.78;20887778;28;20052;-71
2023/08/01 19:43:17;;;;;;;9.13;5.85;;;;;;;27.63;84.08;100472.81;20890033;28;20056;-70
2023/08/01 19:53:39;;;;;;;11.73;5.32;;;;;;;27.59;81.93;100473.06;20888813;28;20061;-70
2023/08/01 20:04:03;;;;;;;10.45;4.60;;;;;;;27.49;84.21;100469.13;20927409;28;20492;-70
2023/08/01 20:14:25;;;;;;;9.68;4.40;;;;;;;27.33;89.59;100463.72;20929699;28;20058;-71
2023/08/01 20:24:49;;;;;;;7.57;4.50;;;;;;;27.28;88.76;100463.13;20939647;28;20052;-70
2023/08/01 20:35:12;;;;;;;8.85;4.55;;;;;;;27.14;89.29;100460.34;20919678;28;20094;-71
2023/08/01 20:45:17;;;;;;;7.90;4.80;;;;;;;27.01;88.46;100453.88;20945331;28;20051;-71
2023/08/01 20:55:40;;;;;;;7.55;4.90;;;;;;;26.71;91.17;100451.94;20960071;28;20619;-70
2023/08/01 21:06:05;;;;;;;7.57;4.70;;;;;;;26.35;93.66;100459.34;20940808;28;20107;-70
2023/08/01 21:16:27;;;;;;;7.35;5.55;;;;;;;26.45;89.40;100456.03;20920355;28;20535;-71
2023/08/01 21:26:52;;;;;;;9.82;5.35;;;;;;;25.88;95.44;100454.63;20903509;28;20818;-71
2023/08/01 21:37:15;;;;;;;10.15;6.20;;;;;;;26.06;91.53;100450.06;20950350;28;20144;-70
2023/08/01 21:47:39;;;;;;;8.75;4.93;;;;;;;26.06;90.59;100442.81;20916886;28;20057;-70
2023/08/01 21:58:02;;;;;;;6.72;5.20;;;;;;;25.76;93.22;100439.91;20896555;28;20479;-70
2023/08/01 22:08:26;;;;;;;7.88;5.50;;;;;;;25.63;94.08;100443.31;20905661;28;20592;-71
2023/08/01 22:18:29;;;;;;;6.75;5.53;;;;;;;25.45;96.25;100450.53;20961679;28;20152;-70
2023/08/01 22:28:54;;;;;;;8.35;5.15;;;;;;;25.42;95.83;100446.13;20916968;28;20115;-70
2023/08/01 22:39:17;;;;;;;7.50;5.28;;;;;;;25.35;96.26;100455.50;20939059;28;20080;-70
2023/08/01 22:49:41;;;;;;;9.60;5.90;;;;;;;25.16;98.56;100451.97;20909893;28;20049;-70
2023/08/01 23:00:05;;;;;;;6.82;5.10;;;;;;;25.00;98.50;100443.78;20893389;28;20159;-70
2023/08/01 23:10:29;;;;;;;7.53;4.80;;;;;;;24.98;98.46;100445.66;20910929;28;20553;-70
2023/08/01 23:20:57;;;;;;;9.20;5.40;;;;;;;24.88;99.95;100452.41;20869419;28;20366;-71
2023/08/01 23:31:21;;;;;;;10.00;6.07;;;;;;;24.74;100.00;100451.34;20929441;28;20447;-70
2023/08/01 23:41:44;;;;;;;10.38;5.85;;;;;;;24.64;100.00;100440.09;20906539;28;20051;-70
2023/08/01 23:52:09;;;;;;;7.93;5.78;;;;;;;24.63;100.00;100446.44;20913200;28;20541;-70
